createdAt,value
2017-07-04T06:25:56.222Z,20.83
2017-07-04T06:28:39.271Z,20.80
2017-07-04T06:32:18.181Z,20.59
2017-07-04T06:53:08.401Z,20.70
2017-07-04T06:55:51.462Z,20.72
2017-07-04T06:58:45.073Z,20.62
2017-07-04T07:01:39.218Z,20.44
2017-07-04T07:06:15.391Z,20.13
2017-07-04T07:23:18.606Z,20.60
2017-07-04T07:26:01.391Z,20.64
2017-07-04T07:28:54.814Z,20.54
2017-07-04T07:31:48.994Z,20.39
2017-07-04T07:34:43.353Z,20.25
2017-07-04T07:38:45.881Z,20.11
2017-07-04T07:42:15.734Z,20.07
2017-07-04T07:50:51.443Z,20.24
2017-07-04T07:53:34.645Z,20.34
2017-07-04T07:56:28.417Z,20.32
2017-07-04T07:59:22.567Z,20.30
2017-07-04T08:02:17.053Z,20.26
2017-07-04T08:05:11.500Z,20.22
2017-07-04T08:08:06.130Z,20.19
2017-07-04T08:11:00.698Z,20.17
2017-07-04T08:13:55.460Z,20.16
2017-07-04T08:16:50.253Z,20.20
2017-07-04T08:19:44.939Z,20.26
2017-07-04T08:22:39.782Z,20.34
2017-07-04T08:25:34.647Z,20.46
2017-07-04T08:28:29.691Z,20.64
2017-07-04T08:31:24.743Z,20.88
2017-07-04T08:34:19.851Z,21.16
2017-07-04T08:37:15.065Z,21.44
2017-07-04T08:40:10.202Z,21.71
2017-07-04T08:43:05.339Z,22.01
2017-07-04T08:46:00.566Z,22.28
2017-07-04T08:48:55.581Z,22.45
2017-07-04T08:51:50.354Z,22.49
2017-07-04T08:54:45.505Z,22.56
2017-07-04T08:57:40.556Z,22.68
2017-07-04T09:00:35.475Z,22.76
2017-07-04T09:03:30.169Z,22.79
2017-07-04T09:06:25.106Z,22.82
2017-07-04T09:09:20.175Z,22.91
2017-07-04T09:12:15.367Z,23.07
2017-07-04T09:15:10.650Z,23.31
2017-07-04T09:18:06.124Z,23.59
2017-07-04T09:21:01.404Z,23.88
2017-07-04T09:23:56.993Z,24.21
2017-07-04T09:29:46.957Z,24.34
2017-07-04T09:32:41.863Z,24.27
2017-07-04T09:35:36.526Z,24.14
2017-07-04T09:38:31.775Z,24.22
2017-07-04T09:41:27.225Z,24.40
2017-07-04T09:44:22.335Z,24.50
2017-07-04T09:47:17.664Z,24.64
2017-07-04T09:50:13.194Z,24.83
2017-07-04T09:53:08.617Z,25.11
2017-07-04T09:56:04.022Z,25.44
2017-07-04T09:58:59.788Z,25.90
2017-07-04T10:01:55.683Z,26.23
2017-07-04T10:04:51.402Z,26.43
2017-07-04T10:07:46.843Z,26.52
2017-07-04T10:10:42.155Z,26.43
2017-07-04T10:13:37.661Z,26.26
2017-07-04T10:16:33.489Z,26.38
2017-07-04T10:19:29.566Z,26.69
2017-07-04T10:22:25.648Z,27.14
2017-07-04T10:25:21.758Z,27.49
2017-07-04T10:28:17.761Z,27.85
2017-07-04T10:31:13.695Z,28.20
2017-07-04T10:34:09.423Z,28.40
2017-07-04T10:37:04.875Z,28.46
2017-07-04T10:40:00.147Z,28.28
2017-07-04T10:42:55.425Z,27.98
2017-07-04T10:45:50.766Z,27.60
2017-07-04T10:48:46.028Z,27.17
2017-07-04T10:51:41.400Z,26.79
2017-07-04T10:54:36.718Z,26.44
2017-07-04T10:57:32.017Z,26.08
2017-07-04T11:00:27.391Z,25.80
2017-07-04T11:03:22.818Z,25.56
2017-07-04T11:06:18.108Z,25.38
2017-07-04T11:09:13.395Z,25.19
2017-07-04T11:12:08.681Z,25.02
2017-07-04T11:15:04.014Z,24.84
2017-07-04T11:17:59.234Z,24.67
2017-07-04T11:20:54.392Z,24.49
2017-07-04T11:23:49.525Z,24.31
2017-07-04T11:26:44.754Z,24.16
2017-07-04T11:29:39.692Z,24.01
2017-07-04T11:32:34.695Z,23.88
2017-07-04T11:38:24.938Z,23.58
2017-07-04T11:41:20.246Z,23.43
2017-07-04T11:44:15.435Z,23.29
2017-07-04T11:47:10.652Z,23.18
2017-07-04T11:50:05.931Z,23.06
2017-07-04T11:53:00.988Z,22.95
2017-07-04T11:55:55.974Z,22.90
2017-07-04T11:58:51.097Z,22.84
2017-07-04T12:01:46.105Z,22.77
2017-07-04T12:04:41.096Z,22.70
2017-07-04T12:07:36.409Z,22.64
2017-07-04T12:10:31.387Z,22.60
2017-07-04T12:13:26.395Z,22.57
2017-07-04T12:16:21.408Z,22.54
2017-07-04T12:19:16.512Z,22.52
2017-07-04T12:22:11.491Z,22.50
2017-07-04T12:25:06.608Z,22.48
2017-07-04T12:28:01.754Z,22.43
2017-07-04T12:30:56.849Z,22.37
2017-07-04T12:33:51.899Z,22.32
2017-07-04T12:36:46.862Z,22.30
2017-07-04T12:39:41.851Z,22.26
2017-07-04T12:42:36.969Z,22.22
2017-07-04T12:48:27.116Z,22.14
2017-07-04T12:51:22.090Z,22.10
2017-07-04T12:54:17.111Z,22.07
2017-07-04T12:57:12.160Z,22.04
2017-07-04T13:00:07.105Z,22.01
2017-07-04T13:03:02.143Z,21.98
2017-07-04T13:05:57.085Z,21.95
2017-07-04T13:08:52.357Z,21.94
2017-07-04T13:11:47.381Z,21.93
2017-07-04T13:14:42.305Z,21.91
2017-07-04T13:17:37.262Z,21.90
2017-07-04T13:20:32.073Z,21.90
2017-07-04T13:23:26.890Z,21.89
2017-07-04T13:26:21.856Z,21.86
2017-07-04T13:29:16.684Z,21.83
2017-07-04T13:32:11.500Z,21.80
2017-07-04T13:35:06.319Z,21.75
2017-07-04T13:38:00.997Z,21.72
2017-07-04T13:40:55.692Z,21.69
2017-07-04T13:43:50.373Z,21.67
2017-07-04T13:49:39.609Z,21.64
2017-07-04T13:52:34.317Z,21.63
2017-07-04T13:55:28.867Z,21.60
2017-07-04T13:58:23.597Z,21.57
2017-07-04T14:01:18.111Z,21.55
2017-07-04T14:04:12.752Z,21.53
2017-07-04T14:07:07.358Z,21.51
2017-07-04T14:10:01.911Z,21.50
2017-07-04T14:15:50.814Z,21.47
2017-07-04T14:18:45.318Z,21.47
2017-07-04T14:21:39.848Z,21.46
2017-07-04T14:24:34.726Z,21.45
2017-07-04T14:27:29.564Z,21.43
2017-07-04T14:30:24.614Z,21.41
2017-07-04T14:33:19.537Z,21.40
2017-07-04T14:36:14.416Z,21.40
2017-07-04T14:39:09.399Z,21.41
2017-07-04T14:42:04.317Z,21.41
2017-07-04T14:44:59.223Z,21.42
2017-07-04T14:47:54.199Z,21.42
2017-07-04T14:50:49.212Z,21.45
2017-07-04T14:53:44.207Z,21.47
2017-07-04T14:56:39.082Z,21.47
2017-07-04T14:59:34.092Z,21.47
2017-07-04T15:02:29.099Z,21.46
2017-07-04T15:05:23.938Z,21.46
2017-07-04T15:08:19.133Z,21.47
2017-07-04T15:11:14.146Z,21.47
2017-07-04T15:14:09.020Z,21.47
2017-07-04T15:17:03.889Z,21.46
2017-07-04T15:19:58.886Z,21.45
2017-07-04T15:22:53.888Z,21.44
2017-07-04T15:25:48.799Z,21.43
2017-07-04T15:28:43.796Z,21.42
2017-07-04T15:31:38.785Z,21.40
2017-07-04T15:34:33.796Z,21.41
2017-07-04T15:37:28.745Z,21.41
2017-07-04T15:40:24.189Z,21.41
2017-07-04T15:43:19.098Z,21.42
2017-07-04T15:46:14.112Z,21.42
2017-07-04T15:49:09.091Z,21.43
2017-07-04T15:52:04.065Z,21.43
2017-07-04T15:54:59.092Z,21.42
2017-07-04T15:57:54.064Z,21.41
2017-07-04T16:00:49.077Z,21.41
2017-07-04T16:03:43.952Z,21.40
2017-07-04T16:06:39.111Z,21.39
2017-07-04T16:09:33.912Z,21.37
2017-07-04T16:12:28.874Z,21.35
2017-07-04T16:15:23.909Z,21.33
2017-07-04T16:18:19.196Z,21.31
2017-07-04T16:21:14.242Z,21.30
2017-07-04T16:24:09.255Z,21.29
2017-07-04T16:27:04.233Z,21.27
2017-07-04T16:29:59.162Z,21.26
2017-07-04T16:32:54.259Z,21.26
2017-07-04T16:35:49.128Z,21.26
2017-07-04T16:38:44.103Z,21.26
2017-07-04T16:41:39.130Z,21.25
2017-07-04T16:44:34.056Z,21.23
2017-07-04T16:47:29.006Z,21.22
2017-07-04T16:50:23.828Z,21.20
2017-07-04T16:53:18.783Z,21.17
2017-07-04T16:56:13.698Z,21.15
2017-07-04T16:59:08.619Z,21.14
2017-07-04T17:02:03.484Z,21.13
2017-07-04T17:04:58.407Z,21.11
2017-07-04T17:07:53.526Z,21.08
2017-07-04T17:10:48.482Z,21.07
2017-07-04T17:16:37.977Z,21.04
2017-07-04T17:19:32.889Z,21.03
2017-07-04T17:22:27.798Z,21.02
2017-07-04T17:25:22.601Z,21.01
2017-07-04T17:28:17.501Z,21.01
2017-07-04T17:31:12.331Z,21.00
2017-07-04T17:34:07.262Z,20.98
2017-07-04T17:37:02.208Z,20.97
2017-07-04T17:39:57.065Z,20.96
2017-07-04T17:42:51.851Z,20.96
2017-07-04T17:45:46.635Z,20.95
2017-07-04T17:48:41.477Z,20.94
2017-07-04T17:51:36.306Z,20.92
2017-07-04T17:54:31.154Z,20.90
2017-07-04T17:57:26.012Z,20.88
2017-07-04T18:00:20.710Z,20.87
2017-07-04T18:03:15.484Z,20.85
2017-07-04T18:06:10.250Z,20.83
2017-07-04T18:09:04.935Z,20.83
2017-07-04T18:11:59.663Z,20.81
2017-07-04T18:14:54.428Z,20.79
2017-07-04T18:17:49.265Z,20.78
2017-07-04T18:20:44.012Z,20.75
2017-07-04T18:23:38.741Z,20.72
2017-07-04T18:26:33.566Z,20.70
2017-07-04T18:29:28.237Z,20.68
2017-07-04T18:32:23.099Z,20.66
2017-07-04T18:35:17.935Z,20.65
2017-07-04T18:38:12.633Z,20.63
2017-07-04T18:41:07.325Z,20.61
2017-07-04T18:44:02.101Z,20.58
2017-07-04T18:46:56.796Z,20.56
2017-07-04T18:49:51.484Z,20.54
2017-07-04T18:52:46.093Z,20.52
2017-07-04T18:55:40.831Z,20.50
2017-07-04T18:58:35.394Z,20.48
2017-07-04T19:01:30.033Z,20.46
2017-07-04T19:04:24.616Z,20.44
2017-07-04T19:07:19.647Z,20.42
2017-07-04T19:10:14.332Z,20.39
2017-07-04T19:13:08.762Z,20.37
2017-07-04T19:16:03.244Z,20.34
2017-07-04T19:18:57.753Z,20.32
2017-07-04T19:21:52.256Z,20.29
2017-07-04T19:24:46.832Z,20.25
2017-07-04T19:27:41.116Z,20.21
2017-07-04T19:31:43.276Z,20.18
2017-07-04T19:34:50.256Z,20.21
2017-07-04T19:40:04.160Z,20.26
2017-07-04T19:43:09.856Z,20.35
2017-07-04T19:46:52.702Z,20.37
2017-07-04T19:49:37.370Z,20.37
2017-07-04T19:52:42.610Z,20.34
2017-07-04T19:55:31.881Z,20.29
2017-07-04T20:00:30.410Z,20.22
2017-07-04T20:03:58.896Z,20.26
2017-07-04T20:06:55.141Z,20.27
2017-07-04T20:09:44.086Z,20.23
2017-07-04T20:31:28.200Z,20.94
2017-07-04T20:39:58.633Z,20.76
2017-07-04T20:42:52.958Z,20.59
2017-07-04T20:45:47.366Z,20.43
2017-07-04T20:51:36.235Z,20.17
2017-07-04T20:54:30.656Z,20.06
2017-07-04T20:57:25.094Z,19.95
2017-07-04T21:00:19.531Z,19.87
2017-07-04T21:03:13.983Z,19.80
2017-07-04T21:06:08.230Z,19.74
2017-07-04T21:09:02.503Z,19.69
2017-07-04T21:11:56.698Z,19.64
2017-07-04T21:14:50.917Z,19.60
2017-07-04T21:17:45.293Z,19.56
2017-07-04T21:20:39.535Z,19.52
2017-07-04T21:23:33.836Z,19.50
2017-07-04T21:26:27.988Z,19.48
2017-07-04T21:30:29.928Z,19.45
2017-07-04T21:33:14.451Z,19.50
2017-07-04T21:36:08.591Z,19.51
2017-07-04T21:39:02.564Z,19.51
2017-07-04T21:41:56.604Z,19.49
2017-07-04T21:44:50.733Z,19.47
2017-07-04T21:51:19.688Z,19.51
2017-07-04T21:54:14.162Z,19.65
2017-07-04T21:57:03.018Z,19.68
2017-07-04T22:02:51.704Z,19.62
2017-07-04T22:05:46.290Z,19.56
2017-07-04T22:08:40.892Z,19.51
2017-07-04T22:11:35.484Z,19.45
2017-07-04T22:14:30.071Z,19.40
2017-07-04T22:30:35.573Z,20.02
2017-07-04T22:33:18.875Z,20.12
2017-07-04T22:36:12.548Z,20.08
2017-07-04T22:39:06.875Z,19.98
2017-07-04T22:42:46.717Z,19.83
2017-07-04T22:56:16.587Z,20.06
2017-07-04T22:58:59.811Z,20.15
2017-07-04T23:09:09.823Z,19.98
2017-07-04T23:17:21.155Z,20.05
2017-07-04T23:20:04.414Z,20.11
2017-07-04T23:23:43.438Z,20.02
2017-07-04T23:26:29.004Z,19.94
2017-07-04T23:29:23.234Z,19.84
2017-07-04T23:37:00.176Z,19.71
2017-07-04T23:44:14.893Z,19.87
2017-07-04T23:46:58.248Z,19.94
2017-07-04T23:49:52.081Z,19.90
